createdAt,value
2019-04-11T00:00:02.037Z,92.70
2019-04-11T00:02:33.023Z,92.90
2019-04-11T00:05:04.353Z,93.10
2019-04-11T00:07:34.464Z,92.70
2019-04-11T00:10:06.222Z,92.80
2019-04-11T00:12:36.774Z,92.90
2019-04-11T00:15:08.596Z,93.30
2019-04-11T00:17:38.587Z,93.40
2019-04-11T00:20:09.623Z,93.70
2019-04-11T00:22:39.734Z,93.40
2019-04-11T00:25:09.922Z,93.20
2019-04-11T00:27:39.972Z,93.20
2019-04-11T00:30:10.550Z,93.30
2019-04-11T00:32:41.430Z,93.20
2019-04-11T00:35:12.521Z,93.60
2019-04-11T00:37:43.428Z,93.70
2019-04-11T00:40:13.784Z,94.20
2019-04-11T00:42:45.017Z,94.10
2019-04-11T00:45:16.099Z,94.10
2019-04-11T00:47:46.959Z,93.60
2019-04-11T00:50:16.987Z,93.60
2019-04-11T00:52:47.597Z,93.90
2019-04-11T00:55:17.674Z,94.40
2019-04-11T00:57:47.574Z,94.60
2019-04-11T01:00:18.657Z,94.20
2019-04-11T01:02:49.602Z,94.50
2019-04-11T01:05:19.718Z,94.70
2019-04-11T01:07:49.690Z,94.30
2019-04-11T01:10:20.325Z,95.00
2019-04-11T01:12:51.287Z,94.60
2019-04-11T01:15:23.796Z,94.70
2019-04-11T01:17:53.904Z,95.10
2019-04-11T01:20:23.925Z,95.20
2019-04-11T01:22:54.283Z,95.00
2019-04-11T01:25:24.406Z,94.90
2019-04-11T01:27:54.383Z,95.20
2019-04-11T01:30:26.997Z,95.30
2019-04-11T01:32:57.005Z,95.10
2019-04-11T01:35:27.032Z,95.50
2019-04-11T01:37:57.813Z,95.60
2019-04-11T01:40:27.850Z,95.50
2019-04-11T01:42:57.818Z,95.50
2019-04-11T01:45:27.762Z,95.70
2019-04-11T01:48:05.094Z,95.80
2019-04-11T01:50:35.425Z,95.80
2019-04-11T01:53:05.419Z,95.90
2019-04-11T01:55:35.338Z,95.80
2019-04-11T01:58:06.537Z,96.00
2019-04-11T02:00:48.576Z,96.30
2019-04-11T02:03:27.277Z,96.40
2019-04-11T02:05:57.393Z,96.30
2019-04-11T02:08:27.373Z,96.50
2019-04-11T02:10:57.382Z,96.50
2019-04-11T02:13:27.984Z,96.80
2019-04-11T02:15:58.837Z,96.50
2019-04-11T02:18:29.868Z,96.50
2019-04-11T02:21:00.977Z,96.70
2019-04-11T02:23:32.726Z,96.40
2019-04-11T02:26:05.050Z,96.60
2019-04-11T02:28:35.582Z,96.80
2019-04-11T02:31:07.177Z,96.70
2019-04-11T02:33:37.232Z,96.90
2019-04-11T02:36:09.532Z,96.90
2019-04-11T02:38:41.099Z,97.10
2019-04-11T02:41:12.564Z,97.00
2019-04-11T02:43:44.415Z,97.00
2019-04-11T02:46:24.580Z,96.80
2019-04-11T02:48:46.437Z,97.00
2019-04-11T02:51:16.407Z,97.20
2019-04-11T02:53:47.288Z,97.10
2019-04-11T02:56:19.326Z,97.00
2019-04-11T02:58:50.362Z,97.00
2019-04-11T03:01:21.858Z,97.20
2019-04-11T03:03:53.716Z,97.30
2019-04-11T03:06:25.674Z,96.90
2019-04-11T03:08:57.317Z,97.10
2019-04-11T03:11:27.577Z,97.40
2019-04-11T03:14:00.288Z,97.30
2019-04-11T03:16:45.078Z,97.00
2019-04-11T03:19:17.890Z,96.90
2019-04-11T03:21:39.210Z,97.00
2019-04-11T03:24:08.255Z,97.10
2019-04-11T03:26:37.783Z,97.10
2019-04-11T03:29:10.729Z,97.00
2019-04-11T03:32:16.943Z,97.10
2019-04-11T03:35:02.600Z,97.00
2019-04-11T03:37:21.043Z,97.20
2019-04-11T03:39:37.562Z,97.00
2019-04-11T03:42:07.555Z,97.00
2019-04-11T03:44:26.671Z,97.20
2019-04-11T03:47:08.413Z,97.20
2019-04-11T03:49:31.732Z,96.90
2019-04-11T03:51:55.080Z,97.20
2019-04-11T03:54:25.396Z,97.40
2019-04-11T03:56:57.058Z,97.10
2019-04-11T03:59:28.884Z,97.00
2019-04-11T04:02:00.026Z,97.20
2019-04-11T04:04:30.817Z,97.10
2019-04-11T04:07:02.534Z,97.20
2019-04-11T04:09:32.856Z,96.90
2019-04-11T04:12:04.883Z,97.00
2019-04-11T04:14:37.163Z,97.30
2019-04-11T04:17:17.051Z,97.20
2019-04-11T04:20:02.232Z,97.30
2019-04-11T04:22:35.706Z,96.90
2019-04-11T04:25:08.276Z,97.00
2019-04-11T04:27:39.398Z,97.00
2019-04-11T04:30:12.702Z,97.00
2019-04-11T04:32:43.035Z,97.20
2019-04-11T04:35:18.650Z,96.90
2019-04-11T04:37:47.495Z,97.30
2019-04-11T04:40:31.553Z,97.30
2019-04-11T04:42:53.321Z,97.20
2019-04-11T04:45:23.675Z,96.90
2019-04-11T04:47:58.775Z,97.10
2019-04-11T04:50:26.599Z,97.10
2019-04-11T04:52:58.130Z,96.90
2019-04-11T04:55:30.150Z,97.50
2019-04-11T04:58:01.402Z,97.60
2019-04-11T05:00:32.017Z,97.50
2019-04-11T05:03:02.547Z,96.80
2019-04-11T05:05:33.799Z,97.00
2019-04-11T05:08:03.911Z,97.40
2019-04-11T05:10:33.918Z,96.90
2019-04-11T05:13:05.555Z,96.90
2019-04-11T05:15:36.608Z,96.60
2019-04-11T05:18:08.714Z,96.90
2019-04-11T05:20:38.611Z,97.10
2019-04-11T05:23:08.741Z,97.00
2019-04-11T05:25:39.085Z,97.00
2019-04-11T05:28:09.901Z,96.70
2019-04-11T05:30:39.924Z,97.30
2019-04-11T05:33:09.899Z,97.30
2019-04-11T05:35:39.859Z,96.90
2019-04-11T05:38:10.369Z,96.80
2019-04-11T05:40:40.580Z,96.70
2019-04-11T05:43:11.435Z,96.30
2019-04-11T05:45:42.459Z,96.80
2019-04-11T05:48:27.066Z,96.70
2019-04-11T05:50:58.295Z,96.50
2019-04-11T05:53:28.399Z,96.70
2019-04-11T05:55:59.969Z,97.00
2019-04-11T05:58:32.482Z,96.60
2019-04-11T06:01:20.256Z,96.20
2019-04-11T06:03:52.543Z,96.30
2019-04-11T06:06:31.988Z,96.70
2019-04-11T06:09:02.153Z,96.00
2019-04-11T06:11:39.022Z,96.20
2019-04-11T06:14:11.121Z,96.40
2019-04-11T06:16:47.501Z,96.30
2019-04-11T06:19:25.248Z,96.10
2019-04-11T06:21:56.823Z,96.40
2019-04-11T06:24:36.389Z,96.20
2019-04-11T06:27:11.317Z,96.30
2019-04-11T06:30:01.198Z,96.50
2019-04-11T06:32:34.048Z,95.80
2019-04-11T06:35:26.135Z,95.80
2019-04-11T06:38:08.068Z,95.70
2019-04-11T06:40:42.659Z,95.50
2019-04-11T06:43:26.262Z,95.20
2019-04-11T06:45:57.840Z,95.40
2019-04-11T06:48:33.889Z,94.90
2019-04-11T06:51:20.262Z,95.40
2019-04-11T06:53:52.616Z,94.90
2019-04-11T06:56:27.919Z,94.70
2019-04-11T06:58:59.755Z,94.20
2019-04-11T07:01:30.654Z,94.50
2019-04-11T07:04:07.748Z,94.40
2019-04-11T07:06:39.874Z,94.60
2019-04-11T07:09:20.165Z,94.40
2019-04-11T07:11:54.894Z,94.60
2019-04-11T07:14:43.328Z,94.20
2019-04-11T07:17:31.782Z,94.00
2019-04-11T07:20:04.587Z,93.60
2019-04-11T07:22:52.157Z,93.80
2019-04-11T07:25:23.775Z,93.40
2019-04-11T07:27:59.341Z,93.10
2019-04-11T07:30:47.778Z,93.10
2019-04-11T07:33:25.248Z,92.20
2019-04-11T07:36:14.678Z,91.60
2019-04-11T07:39:03.403Z,92.10
2019-04-11T07:41:38.902Z,92.00
2019-04-11T07:44:13.815Z,91.70
2019-04-11T07:46:54.486Z,92.40
2019-04-11T07:49:28.783Z,91.70
2019-04-11T07:52:00.388Z,91.20
2019-04-11T07:54:30.582Z,90.40
2019-04-11T07:57:11.463Z,89.60
2019-04-11T07:59:43.076Z,87.90
2019-04-11T08:02:15.976Z,87.20
2019-04-11T08:05:06.819Z,87.60
2019-04-11T08:07:55.125Z,90.10
2019-04-11T08:10:33.103Z,88.80
2019-04-11T08:13:05.900Z,84.70
2019-04-11T08:15:40.473Z,85.00
2019-04-11T08:18:16.632Z,83.70
2019-04-11T08:20:48.237Z,85.10
2019-04-11T08:23:19.891Z,84.10
2019-04-11T08:26:08.002Z,85.50
2019-04-11T08:28:38.123Z,85.70
2019-04-11T08:31:19.360Z,85.30
2019-04-11T08:33:50.974Z,84.60
2019-04-11T08:36:24.035Z,85.70
2019-04-11T08:38:54.611Z,83.30
2019-04-11T08:41:35.763Z,84.70
2019-04-11T08:44:06.075Z,84.50
2019-04-11T08:46:37.693Z,83.20
2019-04-11T08:49:09.834Z,79.00
2019-04-11T08:51:41.156Z,77.80
2019-04-11T08:54:29.293Z,77.70
2019-04-11T08:56:59.251Z,78.00
2019-04-11T08:59:46.272Z,77.00
2019-04-11T09:02:16.658Z,78.80
2019-04-11T09:04:48.308Z,79.80
2019-04-11T09:07:22.562Z,77.00
2019-04-11T09:10:11.525Z,75.10
2019-04-11T09:12:43.339Z,73.70
2019-04-11T09:15:31.355Z,75.50
2019-04-11T09:18:04.630Z,73.90
2019-04-11T09:20:40.417Z,71.40
2019-04-11T09:23:11.347Z,76.30
2019-04-11T09:25:56.457Z,77.10
2019-04-11T09:28:29.115Z,77.00
2019-04-11T09:31:13.230Z,78.80
2019-04-11T09:33:59.593Z,76.40
2019-04-11T09:36:33.768Z,79.70
2019-04-11T09:39:23.342Z,73.20
2019-04-11T09:42:11.663Z,76.00
2019-04-11T09:44:49.275Z,76.00
2019-04-11T09:47:22.143Z,79.00
2019-04-11T09:50:05.615Z,77.90
2019-04-11T09:52:49.568Z,77.60
2019-04-11T09:55:38.167Z,73.10
2019-04-11T09:58:09.751Z,76.10
2019-04-11T10:00:47.389Z,75.80
2019-04-11T10:03:21.699Z,79.60
2019-04-11T10:05:54.569Z,78.60
2019-04-11T10:08:41.817Z,76.40
2019-04-11T10:11:19.360Z,81.20
2019-04-11T10:13:51.188Z,75.80
2019-04-11T10:16:28.385Z,80.70
2019-04-11T10:19:17.580Z,77.80
2019-04-11T10:22:04.891Z,80.30
2019-04-11T10:24:52.522Z,79.50
2019-04-11T10:27:39.039Z,77.50
2019-04-11T10:30:25.862Z,78.20
2019-04-11T10:33:14.923Z,77.70
2019-04-11T10:35:52.904Z,78.00
2019-04-11T10:38:22.852Z,75.50
2019-04-11T10:41:00.867Z,78.70
2019-04-11T10:43:34.121Z,78.50
2019-04-11T10:46:07.153Z,80.90
2019-04-11T10:48:46.677Z,78.60
2019-04-11T10:51:29.677Z,82.30
2019-04-11T10:53:59.726Z,77.70
2019-04-11T10:56:32.548Z,79.60
2019-04-11T10:59:03.021Z,80.30
2019-04-11T11:01:35.850Z,78.40
2019-04-11T11:04:13.765Z,79.40
2019-04-11T11:06:46.470Z,78.40
2019-04-11T11:09:18.175Z,76.30
2019-04-11T11:12:05.816Z,78.70
2019-04-11T11:14:43.062Z,80.70
2019-04-11T11:17:48.227Z,79.40
2019-04-11T11:20:08.589Z,77.30
2019-04-11T11:22:38.751Z,77.30
2019-04-11T11:25:24.676Z,76.00
2019-04-11T11:27:55.684Z,78.80
2019-04-11T11:30:27.441Z,77.80
2019-04-11T11:32:58.119Z,74.90
2019-04-11T11:35:50.025Z,78.50
2019-04-11T11:38:22.221Z,77.50
2019-04-11T11:41:08.584Z,75.60
2019-04-11T11:43:39.132Z,76.80
2019-04-11T11:46:25.525Z,73.90
2019-04-11T11:48:54.257Z,77.20
2019-04-11T11:51:30.066Z,76.30
2019-04-11T11:54:05.213Z,74.20
2019-04-11T11:56:38.034Z,73.80
2019-04-11T11:59:16.982Z,75.40
2019-04-11T12:01:50.930Z,75.40
2019-04-11T12:04:39.336Z,74.20
2019-04-11T12:07:12.539Z,76.70
2019-04-11T12:09:55.866Z,77.60
2019-04-11T12:12:27.475Z,77.30
2019-04-11T12:15:17.685Z,77.80
2019-04-11T12:17:57.555Z,78.80
2019-04-11T12:20:46.467Z,78.10
2019-04-11T12:23:46.429Z,80.10
2019-04-11T12:26:10.959Z,80.00
2019-04-11T12:28:44.027Z,77.40
2019-04-11T12:31:13.991Z,77.70
2019-04-11T12:33:45.750Z,77.00
2019-04-11T12:36:18.528Z,80.40
2019-04-11T12:38:54.869Z,77.40
2019-04-11T12:41:35.927Z,76.90
2019-04-11T12:44:29.121Z,78.20
2019-04-11T12:47:13.655Z,78.00
2019-04-11T12:49:53.131Z,78.60
2019-04-11T12:52:36.484Z,77.50
2019-04-11T12:55:15.304Z,78.20
2019-04-11T12:58:03.359Z,77.70
2019-04-11T13:00:37.652Z,76.40
2019-04-11T13:03:09.254Z,76.70
2019-04-11T13:05:52.798Z,79.40
2019-04-11T13:08:42.323Z,77.20
2019-04-11T13:11:13.971Z,75.40
2019-04-11T13:13:45.574Z,76.20
2019-04-11T13:16:16.174Z,76.60
2019-04-11T13:18:47.779Z,77.50
2019-04-11T13:21:31.491Z,75.10
2019-04-11T13:24:05.593Z,74.00
2019-04-11T13:26:43.254Z,75.20
2019-04-11T13:29:23.799Z,75.20
2019-04-11T13:31:55.403Z,74.70
2019-04-11T13:34:26.982Z,72.70
2019-04-11T13:37:14.667Z,75.10
2019-04-11T13:39:46.712Z,75.50
2019-04-11T13:42:23.916Z,78.00
2019-04-11T13:44:53.849Z,76.90
2019-04-11T13:47:40.457Z,77.90
2019-04-11T13:50:16.336Z,76.90
2019-04-11T13:52:46.337Z,79.80
2019-04-11T13:55:18.163Z,78.30
2019-04-11T13:57:55.936Z,80.60
2019-04-11T14:00:39.914Z,79.90
2019-04-11T14:03:28.360Z,78.40
2019-04-11T14:05:59.933Z,78.20
2019-04-11T14:08:31.539Z,78.30
2019-04-11T14:11:08.878Z,79.70
2019-04-11T14:13:40.479Z,80.40
2019-04-11T14:16:12.060Z,79.30
2019-04-11T14:18:49.200Z,77.80
2019-04-11T14:21:20.773Z,76.40
2019-04-11T14:24:11.367Z,77.60
2019-04-11T14:26:42.198Z,77.90
2019-04-11T14:29:32.037Z,78.50
2019-04-11T14:32:03.698Z,78.10
2019-04-11T14:34:45.286Z,77.90
2019-04-11T14:37:16.891Z,77.20
2019-04-11T14:39:51.264Z,78.10
2019-04-11T14:42:28.640Z,77.70
2019-04-11T14:44:58.606Z,78.20
2019-04-11T14:47:39.885Z,75.90
2019-04-11T14:50:12.181Z,77.90
2019-04-11T14:53:00.267Z,77.60
2019-04-11T14:55:30.295Z,78.60
2019-04-11T14:58:01.869Z,78.10
2019-04-11T15:00:33.506Z,78.40
2019-04-11T15:03:14.082Z,76.60
2019-04-11T15:05:45.660Z,78.80
2019-04-11T15:08:20.260Z,78.20
2019-04-11T15:10:51.849Z,77.70
2019-04-11T15:13:23.452Z,75.50
2019-04-11T15:16:04.153Z,78.80
2019-04-11T15:18:36.819Z,78.50
2019-04-11T15:21:11.235Z,80.00
2019-04-11T15:23:42.272Z,79.60
2019-04-11T15:26:30.458Z,78.50
2019-04-11T15:29:02.064Z,78.00
2019-04-11T15:31:39.277Z,78.40
2019-04-11T15:34:09.959Z,76.30
2019-04-11T15:36:44.528Z,78.10
2019-04-11T15:39:18.684Z,80.20
2019-04-11T15:41:50.257Z,79.10
2019-04-11T15:44:38.392Z,78.60
2019-04-11T15:47:09.971Z,80.60
2019-04-11T15:49:46.507Z,78.90
2019-04-11T15:52:17.600Z,77.40
2019-04-11T15:54:51.884Z,76.80
2019-04-11T15:57:23.454Z,77.70
2019-04-11T15:59:55.056Z,77.50
2019-04-11T16:02:27.624Z,78.00
2019-04-11T16:05:02.870Z,78.10
2019-04-11T16:07:52.966Z,77.90
2019-04-11T16:10:24.540Z,77.70
2019-04-11T16:13:12.403Z,76.40
2019-04-11T16:15:43.992Z,78.20
2019-04-11T16:18:32.183Z,78.90
2019-04-11T16:21:03.754Z,77.70
2019-04-11T16:23:38.115Z,78.60
2019-04-11T16:26:09.855Z,77.20
2019-04-11T16:28:59.108Z,78.00
2019-04-11T16:31:30.864Z,77.90
2019-04-11T16:34:04.895Z,78.70
2019-04-11T16:36:39.516Z,76.70
2019-04-11T16:39:23.384Z,79.30
2019-04-11T16:41:54.987Z,79.40
2019-04-11T16:44:30.431Z,81.50
2019-04-11T16:47:20.324Z,77.10
2019-04-11T16:49:52.265Z,79.30
2019-04-11T16:52:21.833Z,79.20
2019-04-11T16:54:51.786Z,79.60
2019-04-11T16:57:21.726Z,79.00
2019-04-11T16:59:51.687Z,78.10
2019-04-11T17:02:24.108Z,77.70
2019-04-11T17:04:55.600Z,79.20
2019-04-11T17:07:29.358Z,78.10
2019-04-11T17:10:00.950Z,78.40
2019-04-11T17:12:32.477Z,78.20
2019-04-11T17:15:02.455Z,79.10
2019-04-11T17:17:32.382Z,77.90
2019-04-11T17:20:05.664Z,77.80
2019-04-11T17:22:34.884Z,77.80
2019-04-11T17:25:05.784Z,77.80
2019-04-11T17:27:35.732Z,79.40
2019-04-11T17:30:07.692Z,80.40
2019-04-11T17:32:37.639Z,79.60
2019-04-11T17:35:07.735Z,79.60
2019-04-11T17:37:37.807Z,79.60
2019-04-11T17:40:07.854Z,79.30
2019-04-11T17:42:37.839Z,78.10
2019-04-11T17:45:08.107Z,77.80
2019-04-11T17:47:38.039Z,79.40
2019-04-11T17:50:08.057Z,79.40
2019-04-11T17:52:38.115Z,78.70
2019-04-11T17:55:08.165Z,78.50
2019-04-11T17:57:38.100Z,80.60
2019-04-11T18:00:10.035Z,79.30
2019-04-11T18:02:41.614Z,78.90
2019-04-11T18:05:11.865Z,80.90
2019-04-11T18:07:41.884Z,81.20
2019-04-11T18:10:11.980Z,81.80
2019-04-11T18:12:44.717Z,80.50
2019-04-11T18:15:14.705Z,81.80
2019-04-11T18:17:44.643Z,83.00
2019-04-11T18:20:14.833Z,82.70
2019-04-11T18:22:46.305Z,83.40
2019-04-11T18:25:16.589Z,81.80
2019-04-11T18:27:46.517Z,81.30
2019-04-11T18:30:17.215Z,82.70
2019-04-11T18:32:47.150Z,83.50
2019-04-11T18:35:17.109Z,83.70
2019-04-11T18:37:47.033Z,85.10
2019-04-11T18:40:18.153Z,83.80
2019-04-11T18:42:48.094Z,84.50
2019-04-11T18:45:18.401Z,84.20
2019-04-11T18:47:48.336Z,86.30
2019-04-11T18:50:22.721Z,84.50
2019-04-11T18:52:50.460Z,85.10
2019-04-11T18:55:20.423Z,85.00
2019-04-11T18:57:50.350Z,85.00
2019-04-11T19:00:22.319Z,83.90
2019-04-11T19:02:52.312Z,82.80
2019-04-11T19:05:28.565Z,83.80
2019-04-11T19:07:53.904Z,84.60
2019-04-11T19:10:24.064Z,81.20
2019-04-11T19:12:54.051Z,79.90
2019-04-11T19:15:24.087Z,82.70
2019-04-11T19:18:05.675Z,81.90
2019-04-11T19:20:25.671Z,83.60
2019-04-11T19:22:55.604Z,84.00
2019-04-11T19:25:25.553Z,82.20
2019-04-11T19:27:57.320Z,82.50
2019-04-11T19:30:27.178Z,80.10
2019-04-11T19:32:57.111Z,78.90
2019-04-11T19:35:27.139Z,81.00
2019-04-11T19:37:57.547Z,81.20
2019-04-11T19:40:27.511Z,80.10
2019-04-11T19:42:57.540Z,80.00
2019-04-11T19:45:27.507Z,80.90
2019-04-11T19:47:57.446Z,82.10
2019-04-11T19:50:29.190Z,80.20
2019-04-11T19:53:02.662Z,80.30
2019-04-11T19:55:38.256Z,80.10
2019-04-11T19:58:08.201Z,80.90
2019-04-11T20:00:38.720Z,79.50
2019-04-11T20:03:08.721Z,79.20
2019-04-11T20:05:39.822Z,80.90
2019-04-11T20:08:12.345Z,79.80
2019-04-11T20:10:42.484Z,81.40
2019-04-11T20:13:13.494Z,80.90
2019-04-11T20:15:43.456Z,82.30
2019-04-11T20:18:13.459Z,80.80
2019-04-11T20:20:43.423Z,81.00
2019-04-11T20:23:13.364Z,83.20
2019-04-11T20:25:46.283Z,83.40
2019-04-11T20:28:14.964Z,80.90
2019-04-11T20:30:45.083Z,82.80
2019-04-11T20:33:26.355Z,81.70
2019-04-11T20:35:46.692Z,84.00
2019-04-11T20:38:16.787Z,83.30
2019-04-11T20:40:46.773Z,80.60
2019-04-11T20:43:16.720Z,81.70
2019-04-11T20:45:46.752Z,81.60
2019-04-11T20:48:16.758Z,80.20
2019-04-11T20:50:46.719Z,81.50
2019-04-11T20:53:16.666Z,80.60
2019-04-11T20:55:46.609Z,79.60
2019-04-11T20:58:26.752Z,79.80
2019-04-11T21:00:50.814Z,81.10
2019-04-11T21:03:19.832Z,79.90
2019-04-11T21:05:49.786Z,81.30
2019-04-11T21:08:19.713Z,79.80
2019-04-11T21:10:49.703Z,82.10
2019-04-11T21:13:19.643Z,81.40
2019-04-11T21:15:49.603Z,80.00
2019-04-11T21:18:19.530Z,84.00
2019-04-11T21:20:49.482Z,82.20
2019-04-11T21:23:24.572Z,82.00
2019-04-11T21:25:51.003Z,83.80
2019-04-11T21:28:20.943Z,82.30
2019-04-11T21:30:50.893Z,81.10
2019-04-11T21:33:20.835Z,80.70
2019-04-11T21:35:50.801Z,81.10
2019-04-11T21:38:20.789Z,80.70
2019-04-11T21:40:50.685Z,83.20
2019-04-11T21:43:20.619Z,81.30
2019-04-11T21:45:50.573Z,82.70
2019-04-11T21:48:20.516Z,83.00
2019-04-11T21:50:50.469Z,84.70
2019-04-11T21:53:20.415Z,83.80
2019-04-11T21:55:50.387Z,83.00
2019-04-11T21:58:20.511Z,84.20
2019-04-11T22:00:54.582Z,81.60
2019-04-11T22:03:25.147Z,82.90
2019-04-11T22:05:55.111Z,81.90
2019-04-11T22:08:26.183Z,81.50
2019-04-11T22:10:56.138Z,82.50
2019-04-11T22:13:26.065Z,84.20
2019-04-11T22:15:56.028Z,84.80
2019-04-11T22:18:26.239Z,84.20
2019-04-11T22:20:56.195Z,83.60
2019-04-11T22:23:26.122Z,84.50
2019-04-11T22:25:56.082Z,86.10
2019-04-11T22:28:26.019Z,85.50
2019-04-11T22:30:55.985Z,87.50
2019-04-11T22:33:28.264Z,86.50
2019-04-11T22:35:59.384Z,85.90
2019-04-11T22:38:30.954Z,86.60
2019-04-11T22:41:02.061Z,87.50
2019-04-11T22:43:37.795Z,88.30
2019-04-11T22:46:08.038Z,89.00
2019-04-11T22:48:39.012Z,88.00
2019-04-11T22:51:11.343Z,89.10
2019-04-11T22:53:43.222Z,89.00
2019-04-11T22:56:12.823Z,90.10
2019-04-11T22:58:43.539Z,88.30
2019-04-11T23:01:16.461Z,88.90
2019-04-11T23:03:56.367Z,90.00
2019-04-11T23:06:26.331Z,89.70
2019-04-11T23:13:15.480Z,90.30
2019-04-11T23:15:43.628Z,90.40
2019-04-11T23:18:14.724Z,90.20
2019-04-11T23:20:44.798Z,90.40
2019-04-11T23:23:15.878Z,90.50
2019-04-11T23:25:45.807Z,90.80
2019-04-11T23:28:16.416Z,90.70
2019-04-11T23:30:49.379Z,91.20
2019-04-11T23:33:19.005Z,90.50
2019-04-11T23:35:51.185Z,90.40
2019-04-11T23:38:23.937Z,90.90
2019-04-11T23:40:53.277Z,90.70
2019-04-11T23:43:23.240Z,90.90
2019-04-11T23:45:53.333Z,90.90
2019-04-11T23:48:24.085Z,91.10
2019-04-11T23:50:55.160Z,91.30
2019-04-11T23:53:28.114Z,90.60
2019-04-11T23:55:59.872Z,90.60
2019-04-11T23:58:31.810Z,90.90
